createdAt,value
2018-10-18T00:02:23.253Z,100358.38
2018-10-18T00:04:52.647Z,100355.34
2018-10-18T00:07:21.294Z,100355.81
2018-10-18T00:09:48.821Z,100356.91
2018-10-18T00:12:16.447Z,100356.67
2018-10-18T00:14:45.122Z,100357.64
2018-10-18T00:17:17.627Z,100354.50
2018-10-18T00:19:45.964Z,100354.98
2018-10-18T00:22:14.531Z,100357.80
2018-10-18T00:24:42.030Z,100358.89
2018-10-18T00:27:11.163Z,100352.08
2018-10-18T00:29:38.677Z,100361.70
2018-10-18T00:32:09.004Z,100358.53
2018-10-18T00:34:37.080Z,100360.61
2018-10-18T00:37:04.596Z,100357.33
2018-10-18T00:39:32.143Z,100359.76
2018-10-18T00:42:00.049Z,100366.69
2018-10-18T00:44:27.711Z,100361.61
2018-10-18T00:46:55.217Z,100367.18
2018-10-18T00:49:22.777Z,100367.80
2018-10-18T00:51:50.721Z,100373.14
2018-10-18T00:54:18.260Z,100372.27
2018-10-18T00:56:45.762Z,100374.00
2018-10-18T00:59:13.272Z,100380.66
2018-10-18T01:01:41.119Z,100378.84
2018-10-18T01:04:08.630Z,100376.88
2018-10-18T01:06:36.141Z,100383.31
2018-10-18T01:09:03.711Z,100384.02
2018-10-18T01:11:31.570Z,100386.80
2018-10-18T01:13:59.082Z,100390.55
2018-10-18T01:16:26.784Z,100396.00
2018-10-18T01:18:54.293Z,100396.61
2018-10-18T01:21:22.190Z,100395.48
2018-10-18T01:23:49.708Z,100398.22
2018-10-18T01:26:17.815Z,100398.07
2018-10-18T01:28:45.311Z,100404.13
2018-10-18T01:31:13.287Z,100408.35
2018-10-18T01:33:40.857Z,100411.47
2018-10-18T01:36:08.391Z,100412.30
2018-10-18T01:38:36.239Z,100411.78
2018-10-18T01:41:03.782Z,100411.75
2018-10-18T01:43:31.319Z,100413.44
2018-10-18T01:45:58.875Z,100413.75
2018-10-18T01:48:26.676Z,100417.25
2018-10-18T01:50:54.189Z,100423.55
2018-10-18T01:53:21.721Z,100421.45
2018-10-18T01:55:49.281Z,100418.02
2018-10-18T01:58:18.047Z,100417.15
2018-10-18T02:00:45.630Z,100418.09
2018-10-18T02:03:13.170Z,100417.05
2018-10-18T02:05:41.154Z,100417.20
2018-10-18T02:08:08.741Z,100420.66
2018-10-18T02:10:36.294Z,100417.38
2018-10-18T02:13:04.531Z,100418.79
2018-10-18T02:15:32.398Z,100417.80
2018-10-18T02:18:00.764Z,100420.94
2018-10-18T02:20:28.307Z,100416.98
2018-10-18T02:22:55.889Z,100426.12
2018-10-18T02:25:23.897Z,100425.48
2018-10-18T02:27:51.467Z,100424.25
2018-10-18T02:30:19.066Z,100427.63
2018-10-18T02:32:46.683Z,100429.33
2018-10-18T02:35:14.558Z,100426.64
2018-10-18T02:37:42.342Z,100436.38
2018-10-18T02:40:09.884Z,100431.66
2018-10-18T02:42:37.500Z,100430.79
2018-10-18T02:45:05.415Z,100435.16
2018-10-18T02:47:32.981Z,100438.00
2018-10-18T02:50:00.549Z,100438.64
2018-10-18T02:52:28.178Z,100431.83
2018-10-18T02:54:56.069Z,100432.59
2018-10-18T02:57:23.612Z,100437.72
2018-10-18T02:59:51.182Z,100433.47
2018-10-18T03:02:19.064Z,100439.81
2018-10-18T03:04:46.641Z,100444.34
2018-10-18T03:07:14.205Z,100440.80
2018-10-18T03:09:41.770Z,100437.89
2018-10-18T03:12:09.740Z,100436.20
2018-10-18T03:14:37.345Z,100440.09
2018-10-18T03:17:04.929Z,100444.95
2018-10-18T03:19:32.865Z,100448.02
2018-10-18T03:22:00.779Z,100446.04
2018-10-18T03:24:28.348Z,100446.87
2018-10-18T03:26:55.913Z,100453.92
2018-10-18T03:29:24.681Z,100453.80
2018-10-18T03:31:52.236Z,100448.79
2018-10-18T03:34:19.811Z,100449.30
2018-10-18T03:36:47.371Z,100452.11
2018-10-18T03:39:14.929Z,100457.46
2018-10-18T03:41:42.515Z,100463.17
2018-10-18T03:44:11.180Z,100461.48
2018-10-18T03:46:38.718Z,100461.01
2018-10-18T03:49:06.366Z,100457.34
2018-10-18T03:51:34.336Z,100455.49
2018-10-18T03:54:02.434Z,100462.93
2018-10-18T03:56:29.996Z,100465.96
2018-10-18T03:58:57.570Z,100461.44
2018-10-18T04:01:25.153Z,100466.67
2018-10-18T04:03:53.764Z,100463.98
2018-10-18T04:06:21.507Z,100460.83
2018-10-18T04:08:48.997Z,100466.55
2018-10-18T04:11:16.642Z,100467.73
2018-10-18T04:13:44.509Z,100469.81
2018-10-18T04:16:12.122Z,100467.13
2018-10-18T04:18:39.801Z,100464.80
2018-10-18T04:21:07.769Z,100463.30
2018-10-18T04:23:35.880Z,100460.15
2018-10-18T04:26:04.224Z,100465.86
2018-10-18T04:28:32.896Z,100458.52
2018-10-18T04:31:01.056Z,100464.75
2018-10-18T04:33:28.673Z,100464.75
2018-10-18T04:35:56.556Z,100464.98
2018-10-18T04:38:24.133Z,100470.41
2018-10-18T04:40:52.424Z,100468.47
2018-10-18T04:43:20.361Z,100468.82
2018-10-18T04:45:47.946Z,100464.80
2018-10-18T04:48:15.728Z,100468.82
2018-10-18T04:50:43.760Z,100471.98
2018-10-18T04:53:11.781Z,100475.01
2018-10-18T04:55:39.371Z,100471.22
2018-10-18T04:58:07.485Z,100472.56
2018-10-18T05:00:35.050Z,100479.61
2018-10-18T05:03:02.645Z,100489.34
2018-10-18T05:05:30.585Z,100492.41
2018-10-18T05:07:58.436Z,100490.44
2018-10-18T05:10:26.004Z,100490.16
2018-10-18T05:12:53.984Z,100488.18
2018-10-18T05:15:22.100Z,100492.20
2018-10-18T05:17:49.717Z,100490.03
2018-10-18T05:20:17.725Z,100485.15
2018-10-18T05:22:45.299Z,100481.41
2018-10-18T05:25:12.972Z,100476.68
2018-10-18T05:27:40.940Z,100479.03
2018-10-18T05:30:08.764Z,100471.16
2018-10-18T05:32:36.373Z,100468.82
2018-10-18T05:35:04.308Z,100471.92
2018-10-18T05:37:31.936Z,100480.77
2018-10-18T05:39:59.560Z,100481.09
2018-10-18T05:42:27.543Z,100489.52
2018-10-18T05:44:56.542Z,100494.02
2018-10-18T05:47:24.199Z,100489.42
2018-10-18T05:49:52.202Z,100487.56
2018-10-18T05:52:19.763Z,100495.13
2018-10-18T05:54:48.288Z,100498.16
2018-10-18T05:57:16.186Z,100493.66
2018-10-18T05:59:43.758Z,100501.91
2018-10-18T06:02:11.305Z,100502.41
2018-10-18T06:04:39.374Z,100509.34
2018-10-18T06:07:06.986Z,100512.64
2018-10-18T06:09:35.483Z,100517.61
2018-10-18T06:12:03.464Z,100521.98
2018-10-18T06:14:31.291Z,100521.27
2018-10-18T06:16:59.025Z,100526.23
2018-10-18T06:19:26.957Z,100523.92
2018-10-18T06:21:54.552Z,100521.99
2018-10-18T06:24:22.144Z,100523.73
2018-10-18T06:26:50.192Z,100529.83
2018-10-18T06:29:17.851Z,100529.00
2018-10-18T06:31:46.417Z,100531.05
2018-10-18T06:34:14.389Z,100535.30
2018-10-18T06:36:42.242Z,100533.92
2018-10-18T06:39:11.001Z,100535.49
2018-10-18T06:41:39.924Z,100534.50
2018-10-18T06:44:08.444Z,100532.48
2018-10-18T06:46:36.021Z,100529.64
2018-10-18T06:49:04.047Z,100527.08
2018-10-18T06:51:32.420Z,100531.53
2018-10-18T06:54:00.082Z,100536.77
2018-10-18T06:56:28.010Z,100536.36
2018-10-18T06:58:55.560Z,100539.86
2018-10-18T07:01:23.170Z,100541.38
2018-10-18T07:03:52.122Z,100538.87
2018-10-18T07:06:22.656Z,100538.95
2018-10-18T07:08:50.252Z,100536.72
2018-10-18T07:11:18.269Z,100537.43
2018-10-18T07:13:45.837Z,100535.73
2018-10-18T07:16:13.381Z,100539.51
2018-10-18T07:18:41.281Z,100538.75
2018-10-18T07:21:12.423Z,100534.56
2018-10-18T07:23:40.037Z,100538.69
2018-10-18T07:26:07.924Z,100540.67
2018-10-18T07:28:35.503Z,100540.14
2018-10-18T07:31:03.071Z,100547.02
2018-10-18T07:33:30.963Z,100535.64
2018-10-18T07:35:58.579Z,100540.09
2018-10-18T07:38:27.055Z,100542.16
2018-10-18T07:40:54.922Z,100545.00
2018-10-18T07:43:22.544Z,100542.83
2018-10-18T07:45:50.128Z,100542.88
2018-10-18T07:48:18.243Z,100544.31
2018-10-18T07:50:45.773Z,100546.29
2018-10-18T07:53:14.854Z,100553.66
2018-10-18T07:55:42.789Z,100560.17
2018-10-18T07:58:10.359Z,100559.40
2018-10-18T08:00:38.027Z,100564.00
2018-10-18T08:03:05.934Z,100567.03
2018-10-18T08:05:33.498Z,100567.73
2018-10-18T08:08:04.156Z,100574.74
2018-10-18T08:10:32.239Z,100566.47
2018-10-18T08:12:59.913Z,100567.94
2018-10-18T08:15:27.544Z,100571.63
2018-10-18T08:17:55.611Z,100574.59
2018-10-18T08:20:23.232Z,100578.11
2018-10-18T08:22:51.757Z,100581.15
2018-10-18T08:25:20.651Z,100582.02
2018-10-18T08:27:48.464Z,100581.72
2018-10-18T08:30:16.061Z,100579.13
2018-10-18T08:32:44.044Z,100583.94
2018-10-18T08:35:13.265Z,100583.30
2018-10-18T08:37:40.902Z,100582.66
2018-10-18T08:40:09.569Z,100587.33
2018-10-18T08:42:37.221Z,100593.34
2018-10-18T08:45:05.185Z,100599.33
2018-10-18T08:47:32.747Z,100602.18
2018-10-18T08:50:01.198Z,100604.64
2018-10-18T08:52:30.244Z,100610.15
2018-10-18T08:54:57.883Z,100602.38
2018-10-18T08:57:25.473Z,100600.52
2018-10-18T08:59:53.503Z,100597.84
2018-10-18T09:02:21.100Z,100605.22
2018-10-18T09:04:49.400Z,100607.53
2018-10-18T09:07:17.731Z,100610.18
2018-10-18T09:09:47.936Z,100606.13
2018-10-18T09:12:15.563Z,100608.69
2018-10-18T09:14:44.184Z,100612.76
2018-10-18T09:17:12.733Z,100607.86
2018-10-18T09:19:44.522Z,100610.47
2018-10-18T09:22:12.421Z,100613.93
2018-10-18T09:24:40.801Z,100607.42
2018-10-18T09:27:08.375Z,100612.50
2018-10-18T09:29:36.416Z,100612.02
2018-10-18T09:32:03.993Z,100616.05
2018-10-18T09:34:31.569Z,100617.23
2018-10-18T09:36:59.713Z,100615.83
2018-10-18T09:39:27.315Z,100613.30
2018-10-18T09:41:54.896Z,100616.30
2018-10-18T09:44:22.845Z,100612.45
2018-10-18T09:46:50.393Z,100615.14
2018-10-18T09:49:17.978Z,100610.09
2018-10-18T09:51:46.000Z,100609.80
2018-10-18T09:54:15.198Z,100621.15
2018-10-18T09:56:43.831Z,100618.97
2018-10-18T09:59:13.469Z,100619.80
2018-10-18T10:01:46.021Z,100617.22
2018-10-18T10:04:14.216Z,100619.72
2018-10-18T10:06:43.037Z,100626.20
2018-10-18T10:09:10.680Z,100619.79
2018-10-18T10:11:38.386Z,100621.31
2018-10-18T10:14:06.592Z,100620.25
2018-10-18T10:16:34.232Z,100621.36
2018-10-18T10:19:01.888Z,100607.24
2018-10-18T10:21:31.001Z,100611.16
2018-10-18T10:23:58.650Z,100611.53
2018-10-18T10:26:26.230Z,100602.13
2018-10-18T10:28:54.216Z,100603.98
2018-10-18T10:31:21.793Z,100604.34
2018-10-18T10:33:50.239Z,100604.09
2018-10-18T10:36:19.268Z,100604.42
2018-10-18T10:38:47.908Z,100606.41
2018-10-18T10:41:15.567Z,100612.16
2018-10-18T10:43:43.517Z,100618.59
2018-10-18T10:46:11.137Z,100619.31
2018-10-18T10:48:39.369Z,100620.99
2018-10-18T10:51:07.331Z,100622.70
2018-10-18T10:53:35.663Z,100620.17
2018-10-18T10:56:03.327Z,100619.13
2018-10-18T10:58:31.681Z,100616.78
2018-10-18T11:01:02.844Z,100610.50
2018-10-18T11:03:32.506Z,100612.21
2018-10-18T11:06:00.500Z,100606.11
2018-10-18T11:08:28.382Z,100607.13
2018-10-18T11:10:57.331Z,100599.33
2018-10-18T11:13:25.738Z,100604.58
2018-10-18T11:15:55.229Z,100605.11
2018-10-18T11:18:22.862Z,100601.39
2018-10-18T11:20:51.844Z,100603.75
2018-10-18T11:23:19.414Z,100603.09
2018-10-18T11:25:47.680Z,100600.05
2018-10-18T11:28:17.176Z,100601.04
2018-10-18T11:30:48.206Z,100595.17
2018-10-18T11:33:16.057Z,100598.84
2018-10-18T11:35:44.556Z,100592.96
2018-10-18T11:38:12.704Z,100598.60
2018-10-18T11:40:42.320Z,100597.91
2018-10-18T11:43:11.248Z,100594.31
2018-10-18T11:45:39.836Z,100588.63
2018-10-18T11:48:08.263Z,100583.62
2018-10-18T11:50:38.419Z,100578.25
2018-10-18T11:53:06.013Z,100583.34
2018-10-18T11:55:34.302Z,100592.27
2018-10-18T11:58:03.514Z,100590.91
2018-10-18T12:00:31.335Z,100590.03
2018-10-18T12:02:59.983Z,100596.75
2018-10-18T12:05:28.796Z,100592.81
2018-10-18T12:07:56.522Z,100588.06
2018-10-18T12:10:24.597Z,100595.19
2018-10-18T12:12:52.572Z,100594.09
2018-10-18T12:15:20.120Z,100590.22
2018-10-18T12:17:47.677Z,100584.46
2018-10-18T12:20:16.957Z,100582.94
2018-10-18T12:22:44.539Z,100584.46
2018-10-18T12:25:12.689Z,100588.53
2018-10-18T12:27:42.560Z,100582.10
2018-10-18T12:30:12.360Z,100578.88
2018-10-18T12:32:40.983Z,100573.64
2018-10-18T12:35:11.356Z,100574.80
2018-10-18T12:37:39.813Z,100582.91
2018-10-18T12:40:07.491Z,100580.05
2018-10-18T12:42:36.731Z,100582.94
2018-10-18T12:45:04.410Z,100581.42
2018-10-18T12:47:32.000Z,100586.80
2018-10-18T12:50:00.491Z,100588.40
2018-10-18T12:52:31.779Z,100591.86
2018-10-18T12:54:59.350Z,100588.91
2018-10-18T12:57:29.208Z,100594.02
2018-10-18T12:59:57.383Z,100595.17
2018-10-18T13:02:26.737Z,100593.82
2018-10-18T13:04:54.650Z,100596.37
2018-10-18T13:07:22.841Z,100598.40
2018-10-18T13:09:51.109Z,100593.30
2018-10-18T13:12:19.216Z,100593.48
2018-10-18T13:14:50.415Z,100591.42
2018-10-18T13:17:18.729Z,100592.28
2018-10-18T13:19:46.699Z,100594.98
2018-10-18T13:22:14.285Z,100590.22
2018-10-18T13:24:42.471Z,100590.55
2018-10-18T13:27:10.404Z,100592.25
2018-10-18T13:29:38.004Z,100586.84
2018-10-18T13:32:06.382Z,100595.55
2018-10-18T13:34:34.221Z,100592.81
2018-10-18T13:37:01.787Z,100589.24
2018-10-18T13:39:29.379Z,100590.73
2018-10-18T13:41:57.443Z,100591.03
2018-10-18T13:44:26.370Z,100587.70
2018-10-18T13:46:53.912Z,100583.69
2018-10-18T13:49:22.640Z,100586.09
2018-10-18T13:51:50.232Z,100587.78
2018-10-18T13:54:19.275Z,100588.76
2018-10-18T13:56:47.246Z,100579.98
2018-10-18T13:59:15.838Z,100578.78
2018-10-18T14:01:43.430Z,100580.23
2018-10-18T14:04:11.446Z,100571.31
2018-10-18T14:06:41.924Z,100578.20
2018-10-18T14:09:10.050Z,100575.51
2018-10-18T14:11:37.622Z,100582.11
2018-10-18T14:14:06.171Z,100577.53
2018-10-18T14:16:36.844Z,100570.25
2018-10-18T14:19:05.116Z,100576.81
2018-10-18T14:21:32.764Z,100576.77
2018-10-18T14:24:00.739Z,100581.30
2018-10-18T14:26:28.566Z,100581.24
2018-10-18T14:28:57.425Z,100580.18
2018-10-18T14:31:28.189Z,100585.03
2018-10-18T14:33:57.817Z,100575.72
2018-10-18T14:36:25.388Z,100581.21
2018-10-18T14:38:53.322Z,100581.54
2018-10-18T14:41:22.373Z,100576.91
2018-10-18T14:43:50.461Z,100575.20
2018-10-18T14:46:18.268Z,100574.09
2018-10-18T14:48:46.149Z,100573.88
2018-10-18T14:51:14.340Z,100572.13
2018-10-18T14:53:42.319Z,100576.13
2018-10-18T14:56:10.183Z,100575.09
2018-10-18T14:58:37.711Z,100573.20
2018-10-18T15:01:05.673Z,100581.56
2018-10-18T15:03:33.265Z,100576.77
2018-10-18T15:06:00.797Z,100578.04
2018-10-18T15:08:30.670Z,100579.16
2018-10-18T15:10:59.873Z,100580.10
2018-10-18T15:13:27.483Z,100583.73
2018-10-18T15:15:55.370Z,100581.50
2018-10-18T15:18:24.105Z,100580.13
2018-10-18T15:20:51.947Z,100587.45
2018-10-18T15:23:20.556Z,100582.52
2018-10-18T15:25:49.331Z,100587.84
2018-10-18T15:28:16.752Z,100585.80
2018-10-18T15:30:44.585Z,100589.60
2018-10-18T15:33:12.217Z,100588.05
2018-10-18T15:35:40.378Z,100584.33
2018-10-18T15:38:09.573Z,100586.67
2018-10-18T15:40:37.119Z,100587.81
2018-10-18T15:43:05.317Z,100590.95
2018-10-18T15:45:33.269Z,100596.30
2018-10-18T15:48:01.013Z,100596.23
2018-10-18T15:50:28.582Z,100595.19
2018-10-18T15:52:56.758Z,100593.13
2018-10-18T15:55:25.273Z,100590.59
2018-10-18T15:57:53.871Z,100595.60
2018-10-18T16:00:21.963Z,100596.91
2018-10-18T16:02:49.692Z,100586.59
2018-10-18T16:05:17.320Z,100589.20
2018-10-18T16:07:46.109Z,100603.17
2018-10-18T16:10:14.281Z,100605.66
2018-10-18T16:12:44.828Z,100600.20
2018-10-18T16:15:13.436Z,100604.54
2018-10-18T16:17:40.994Z,100602.16
2018-10-18T16:20:10.282Z,100607.33
2018-10-18T16:22:39.985Z,100617.52
2018-10-18T16:25:09.166Z,100617.95
2018-10-18T16:27:36.880Z,100617.75
2018-10-18T16:30:04.986Z,100624.13
2018-10-18T16:32:32.548Z,100625.39
2018-10-18T16:35:01.827Z,100624.77
2018-10-18T16:37:31.202Z,100625.82
2018-10-18T16:39:58.876Z,100630.07
2018-10-18T16:42:26.690Z,100633.10
2018-10-18T16:44:55.798Z,100635.65
2018-10-18T16:47:25.948Z,100630.83
2018-10-18T16:49:54.707Z,100630.91
2018-10-18T16:52:22.688Z,100629.12
2018-10-18T16:54:50.880Z,100636.96
2018-10-18T16:57:18.469Z,100644.10
2018-10-18T16:59:47.232Z,100640.14
2018-10-18T17:02:16.415Z,100643.09
2018-10-18T17:04:44.021Z,100641.20
2018-10-18T17:07:12.592Z,100641.59
2018-10-18T17:09:40.913Z,100650.28
2018-10-18T17:12:08.508Z,100648.24
2018-10-18T17:14:37.069Z,100648.66
2018-10-18T17:17:05.404Z,100655.02
2018-10-18T17:19:32.972Z,100651.02
2018-10-18T17:22:00.922Z,100654.63
2018-10-18T17:24:28.507Z,100653.55
2018-10-18T17:26:57.243Z,100650.16
2018-10-18T17:29:25.259Z,100656.03
2018-10-18T17:31:53.415Z,100654.12
2018-10-18T17:34:20.987Z,100663.77
2018-10-18T17:36:50.519Z,100669.13
2018-10-18T17:39:19.411Z,100667.72
2018-10-18T17:41:46.981Z,100669.19
2018-10-18T17:44:15.088Z,100673.22
2018-10-18T17:46:42.629Z,100672.86
2018-10-18T17:49:10.180Z,100676.19
2018-10-18T17:51:38.272Z,100681.68
2018-10-18T17:54:06.775Z,100690.14
2018-10-18T17:56:34.398Z,100689.68
2018-10-18T17:59:02.562Z,100694.20
2018-10-18T18:01:31.380Z,100688.88
2018-10-18T18:03:59.027Z,100690.75
2018-10-18T18:06:27.281Z,100697.50
2018-10-18T18:08:54.781Z,100708.52
2018-10-18T18:11:22.663Z,100696.69
2018-10-18T18:13:50.707Z,100694.98
2018-10-18T18:16:19.584Z,100702.45
2018-10-18T18:18:47.409Z,100710.61
2018-10-18T18:21:16.198Z,100702.95
2018-10-18T18:23:44.656Z,100709.16
2018-10-18T18:26:16.305Z,100701.23
2018-10-18T18:28:45.768Z,100714.04
2018-10-18T18:31:13.442Z,100711.00
2018-10-18T18:33:41.882Z,100715.02
2018-10-18T18:36:10.488Z,100715.98
2018-10-18T18:38:38.080Z,100717.32
2018-10-18T18:41:05.632Z,100717.83
2018-10-18T18:43:33.872Z,100718.81
2018-10-18T18:46:01.424Z,100716.61
2018-10-18T18:48:31.508Z,100720.28
2018-10-18T18:51:02.351Z,100722.25
2018-10-18T18:53:30.711Z,100723.36
2018-10-18T18:55:59.339Z,100721.30
2018-10-18T18:58:28.778Z,100731.16
2018-10-18T19:00:56.597Z,100727.02
2018-10-18T19:03:25.311Z,100724.46
2018-10-18T19:05:54.086Z,100730.06
2018-10-18T19:08:21.672Z,100728.59
2018-10-18T19:10:50.300Z,100733.33
2018-10-18T19:13:19.296Z,100731.98
2018-10-18T19:15:47.829Z,100738.70
2018-10-18T19:18:18.805Z,100739.92
2018-10-18T19:20:46.382Z,100738.70
2018-10-18T19:23:14.011Z,100749.78
2018-10-18T19:25:41.929Z,100748.08
2018-10-18T19:28:09.535Z,100749.66
2018-10-18T19:30:37.876Z,100751.28
2018-10-18T19:33:07.091Z,100753.25
2018-10-18T19:35:34.644Z,100757.16
2018-10-18T19:38:02.229Z,100754.86
2018-10-18T19:40:30.116Z,100757.81
2018-10-18T19:42:57.684Z,100750.16
2018-10-18T19:45:26.165Z,100756.27
2018-10-18T19:47:56.250Z,100763.36
2018-10-18T19:50:23.833Z,100761.66
2018-10-18T19:52:52.352Z,100761.89
2018-10-18T19:55:20.421Z,100771.19
2018-10-18T19:57:49.645Z,100768.27
2018-10-18T20:00:17.268Z,100767.78
2018-10-18T20:02:45.249Z,100772.90
2018-10-18T20:05:13.463Z,100778.88
2018-10-18T20:07:41.074Z,100783.02
2018-10-18T20:10:09.469Z,100776.47
2018-10-18T20:12:37.779Z,100777.05
2018-10-18T20:15:05.479Z,100778.04
2018-10-18T20:17:33.466Z,100775.72
2018-10-18T20:20:01.084Z,100778.04
2018-10-18T20:22:28.686Z,100772.32
2018-10-18T20:24:56.793Z,100775.63
2018-10-18T20:27:24.836Z,100772.70
2018-10-18T20:29:52.416Z,100773.68
2018-10-18T20:32:20.598Z,100775.50
2018-10-18T20:34:48.096Z,100775.14
2018-10-18T20:37:15.648Z,100776.59
2018-10-18T20:39:45.363Z,100776.73
2018-10-18T20:42:12.908Z,100775.52
2018-10-18T20:44:40.462Z,100769.80
2018-10-18T20:47:08.500Z,100769.44
2018-10-18T20:49:36.088Z,100772.95
2018-10-18T20:52:06.268Z,100769.29
2018-10-18T20:54:36.344Z,100767.95
2018-10-18T20:57:07.813Z,100769.68
2018-10-18T20:59:36.245Z,100770.16
2018-10-18T21:02:04.395Z,100771.61
2018-10-18T21:04:31.945Z,100768.93
2018-10-18T21:07:01.227Z,100766.88
2018-10-18T21:09:31.439Z,100766.98
2018-10-18T21:11:59.050Z,100768.84
2018-10-18T21:14:29.717Z,100772.34
2018-10-18T21:16:59.185Z,100770.65
2018-10-18T21:19:27.492Z,100766.78
2018-10-18T21:21:56.247Z,100768.84
2018-10-18T21:24:24.326Z,100768.84
2018-10-18T21:26:52.616Z,100767.50
2018-10-18T21:29:20.192Z,100767.14
2018-10-18T21:31:48.061Z,100761.86
2018-10-18T21:34:15.704Z,100759.18
2018-10-18T21:36:43.291Z,100764.17
2018-10-18T21:39:11.600Z,100750.78
2018-10-18T21:41:39.569Z,100752.95
2018-10-18T21:44:07.169Z,100752.95
2018-10-18T21:46:35.248Z,100752.59
2018-10-18T21:49:04.118Z,100756.61
2018-10-18T21:51:31.713Z,100748.22
2018-10-18T21:53:59.785Z,100756.77
2018-10-18T21:56:27.776Z,100750.18
2018-10-18T21:58:55.369Z,100747.50
2018-10-18T22:01:23.536Z,100752.35
2018-10-18T22:03:52.417Z,100755.54
2018-10-18T22:06:20.464Z,100757.71
2018-10-18T22:08:48.037Z,100752.86
2018-10-18T22:11:15.753Z,100756.88
2018-10-18T22:13:43.630Z,100756.38
2018-10-18T22:16:11.198Z,100753.48
2018-10-18T22:18:39.560Z,100753.23
2018-10-18T22:21:07.960Z,100751.03
2018-10-18T22:23:35.936Z,100743.00
2018-10-18T22:26:03.525Z,100742.64
2018-10-18T22:28:31.076Z,100739.13
2018-10-18T22:30:58.658Z,100739.96
2018-10-18T22:33:26.597Z,100735.11
2018-10-18T22:35:54.167Z,100728.53
2018-10-18T22:38:22.633Z,100735.58
2018-10-18T22:40:50.445Z,100736.20
2018-10-18T22:43:18.004Z,100739.36
2018-10-18T22:45:49.580Z,100735.45
2018-10-18T22:48:17.477Z,100735.09
2018-10-18T22:50:45.074Z,100736.58
2018-10-18T22:53:12.729Z,100725.00
2018-10-18T22:55:41.301Z,100730.36
2018-10-18T22:58:08.892Z,100727.32
2018-10-18T23:00:36.485Z,100730.00
2018-10-18T23:03:04.579Z,100732.31
2018-10-18T23:05:32.097Z,100728.41
2018-10-18T23:07:59.673Z,100734.75
2018-10-18T23:10:27.301Z,100731.71
2018-10-18T23:12:56.199Z,100730.84
2018-10-18T23:15:24.385Z,100734.03
2018-10-18T23:17:52.722Z,100730.12
2018-10-18T23:20:20.288Z,100733.67
2018-10-18T23:22:48.185Z,100731.83
2018-10-18T23:25:15.788Z,100731.47
2018-10-18T23:27:43.545Z,100730.60
2018-10-18T23:30:11.144Z,100719.89
2018-10-18T23:32:39.072Z,100722.36
2018-10-18T23:35:06.687Z,100718.93
2018-10-18T23:37:34.260Z,100721.25
2018-10-18T23:40:01.983Z,100727.58
2018-10-18T23:42:29.939Z,100724.18
2018-10-18T23:44:57.520Z,100727.33
2018-10-18T23:47:25.652Z,100722.48
2018-10-18T23:49:53.229Z,100724.77
2018-10-18T23:52:21.176Z,100730.52
2018-10-18T23:54:48.717Z,100724.54
2018-10-18T23:57:16.422Z,100720.88
2018-10-18T23:59:44.350Z,100717.48
